Time;durP1;ratioP1;P1;durP2;ratioP2;P2;SDS_P1;SDS_P2;PMS_P1;PMS_P2;Temp;Humidity;BMP_temperature;BMP_pressure;BME280_temperature;BME280_humidity;BME280_pressure;Samples;Min_cycle;Max_cycle;Signal;HPM_P1;HPM_P2
2020/12/05 00:00:24;;;;;;;41.83;21.88;;;;;;;;;;5053166;28;20088;-63
2020/12/05 00:02:50;;;;;;;41.78;22.88;;;;;;;;;;5053210;28;20478;-64
2020/12/05 00:05:16;;;;;;;37.28;20.25;;;;;;;;;;5052542;28;20087;-62
2020/12/05 00:07:42;;;;;;;38.42;21.30;;;;;;;;;;5052548;28;20068;-62
2020/12/05 00:10:09;;;;;;;34.03;19.52;;;;;;;;;;5053025;28;20071;-61
2020/12/05 00:12:35;;;;;;;43.47;22.98;;;;;;;;;;5052933;28;20150;-62
2020/12/05 00:15:01;;;;;;;36.25;20.30;;;;;;;;;;5052783;28;20037;-62
2020/12/05 00:17:27;;;;;;;36.95;21.63;;;;;;;;;;5052644;28;20045;-62
2020/12/05 00:19:53;;;;;;;36.70;21.50;;;;;;;;;;5052291;28;20041;-62
2020/12/05 00:22:19;;;;;;;41.85;22.55;;;;;;;;;;5052663;28;20049;-62
2020/12/05 00:24:45;;;;;;;38.13;21.88;;;;;;;;;;5052596;28;20142;-62
2020/12/05 00:27:11;;;;;;;42.90;21.83;;;;;;;;;;5052358;28;20076;-62
2020/12/05 00:29:37;;;;;;;41.38;22.45;;;;;;;;;;5052472;28;20045;-62
2020/12/05 00:32:06;;;;;;;42.97;22.08;;;;;;;;;;5052467;28;20099;-62
2020/12/05 00:34:32;;;;;;;37.63;20.38;;;;;;;;;;5052165;28;20068;-62
2020/12/05 00:36:59;;;;;;;36.63;21.02;;;;;;;;;;5051723;28;20381;-63
2020/12/05 00:39:25;;;;;;;37.38;20.30;;;;;;;;;;5052565;28;20087;-63
2020/12/05 00:41:53;;;;;;;38.70;21.42;;;;;;;;;;5060551;28;20052;-63
2020/12/05 00:44:19;;;;;;;38.00;20.92;;;;;;;;;;5053126;28;20084;-63
2020/12/05 00:46:45;;;;;;;42.00;21.77;;;;;;;;;;5050093;28;20492;-64
2020/12/05 00:49:11;;;;;;;39.60;21.05;;;;;;;;;;5050463;28;20526;-63
2020/12/05 00:51:37;;;;;;;35.03;20.08;;;;;;;;;;5050561;28;20106;-63
2020/12/05 00:54:03;;;;;;;36.35;20.25;;;;;;;;;;5052377;28;20484;-64
2020/12/05 00:56:29;;;;;;;39.42;21.10;;;;;;;;;;5051497;28;20502;-63
2020/12/05 00:58:55;;;;;;;41.08;21.90;;;;;;;;;;5051885;28;20541;-63
2020/12/05 01:01:21;;;;;;;41.72;21.13;;;;;;;;;;5051870;28;20044;-63
2020/12/05 01:03:48;;;;;;;40.00;20.52;;;;;;;;;;5051883;28;20099;-63
2020/12/05 01:06:15;;;;;;;41.42;21.27;;;;;;;;;;5051660;28;20084;-63
2020/12/05 01:08:44;;;;;;;36.55;20.45;;;;;;;;;;5051581;28;20451;-63
2020/12/05 01:11:20;;;;;;;38.58;20.23;;;;;;;;;;5051915;28;20099;-61
2020/12/05 01:13:46;;;;;;;36.03;19.70;;;;;;;;;;5051724;28;20084;-61
2020/12/05 01:16:17;;;;;;;39.50;22.15;;;;;;;;;;5051408;28;20484;-61
2020/12/05 01:18:43;;;;;;;41.55;20.88;;;;;;;;;;5051714;28;20106;-62
2020/12/05 01:21:11;;;;;;;38.33;19.38;;;;;;;;;;5052175;28;20073;-61
2020/12/05 01:23:37;;;;;;;37.63;20.55;;;;;;;;;;5051488;28;20507;-61
2020/12/05 01:26:04;;;;;;;36.58;19.38;;;;;;;;;;5050606;28;20157;-61
2020/12/05 01:28:31;;;;;;;37.17;20.38;;;;;;;;;;5051299;28;20080;-61
2020/12/05 01:30:57;;;;;;;38.63;20.83;;;;;;;;;;5051599;28;20087;-61
2020/12/05 01:33:23;;;;;;;34.42;18.58;;;;;;;;;;5051652;28;20376;-61
2020/12/05 01:35:50;;;;;;;33.60;19.15;;;;;;;;;;5050672;28;20106;-61
2020/12/05 01:38:16;;;;;;;38.50;19.10;;;;;;;;;;5051367;28;20081;-63
2020/12/05 01:40:50;;;;;;;33.58;18.92;;;;;;;;;;5051565;28;20076;-63
2020/12/05 01:43:16;;;;;;;31.88;18.38;;;;;;;;;;5051608;28;20049;-63
2020/12/05 01:45:42;;;;;;;35.22;18.88;;;;;;;;;;5050744;28;20090;-63
2020/12/05 01:48:08;;;;;;;39.80;19.65;;;;;;;;;;5053839;28;20076;-63
2020/12/05 01:50:35;;;;;;;37.83;20.40;;;;;;;;;;5055440;28;20048;-66
2020/12/05 01:53:03;;;;;;;40.47;18.75;;;;;;;;;;5038231;28;20454;-65
2020/12/05 01:55:29;;;;;;;34.22;19.30;;;;;;;;;;5037410;28;20091;-64
2020/12/05 01:57:55;;;;;;;36.03;19.30;;;;;;;;;;5037675;28;20049;-62
2020/12/05 02:00:21;;;;;;;35.22;19.33;;;;;;;;;;5055456;28;20114;-62
2020/12/05 02:02:47;;;;;;;33.80;19.17;;;;;;;;;;5054943;28;20103;-63
2020/12/05 02:05:20;;;;;;;33.70;19.13;;;;;;;;;;5054745;28;20088;-63
2020/12/05 02:07:53;;;;;;;34.63;19.60;;;;;;;;;;5037189;28;20100;-63
2020/12/05 02:10:27;;;;;;;40.40;20.70;;;;;;;;;;5021303;28;20098;-63
2020/12/05 02:12:57;;;;;;;40.97;21.42;;;;;;;;;;5037517;28;20040;-63
2020/12/05 02:15:25;;;;;;;36.65;20.85;;;;;;;;;;5020237;28;20037;-63
2020/12/05 02:18:12;;;;;;;40.17;22.10;;;;;;;;;;5054921;28;20045;-63
2020/12/05 02:20:39;;;;;;;43.05;22.08;;;;;;;;;;5054493;28;20510;-63
2020/12/05 02:23:12;;;;;;;44.63;23.13;;;;;;;;;;5054949;28;20045;-63
2020/12/05 02:25:41;;;;;;;45.70;22.73;;;;;;;;;;5053536;28;20110;-64
2020/12/05 02:28:07;;;;;;;46.30;23.38;;;;;;;;;;5055235;28;20077;-63
2020/12/05 02:30:34;;;;;;;46.47;23.25;;;;;;;;;;5054855;28;20041;-63
2020/12/05 02:33:01;;;;;;;49.20;25.75;;;;;;;;;;5054926;28;20041;-64
2020/12/05 02:35:27;;;;;;;44.80;24.33;;;;;;;;;;5054514;28;20095;-64
2020/12/05 02:37:59;;;;;;;42.95;21.75;;;;;;;;;;5054334;28;20068;-64
2020/12/05 02:40:25;;;;;;;41.95;21.88;;;;;;;;;;5021030;28;20568;-65
2020/12/05 02:42:52;;;;;;;41.70;23.38;;;;;;;;;;5020531;28;20048;-65
2020/12/05 02:45:18;;;;;;;43.67;22.40;;;;;;;;;;5036462;28;20048;-64
2020/12/05 02:47:44;;;;;;;47.70;24.92;;;;;;;;;;5054277;28;20091;-64
2020/12/05 02:50:10;;;;;;;51.22;26.00;;;;;;;;;;5054858;28;20041;-62
2020/12/05 02:52:36;;;;;;;52.15;25.50;;;;;;;;;;5054325;28;20049;-62
2020/12/05 02:55:02;;;;;;;53.45;25.80;;;;;;;;;;5054401;28;20067;-64
2020/12/05 02:57:28;;;;;;;49.22;25.50;;;;;;;;;;5053917;28;20045;-63
2020/12/05 02:59:55;;;;;;;52.60;26.33;;;;;;;;;;5053320;28;20044;-62
2020/12/05 03:02:21;;;;;;;45.63;24.33;;;;;;;;;;5054333;28;20049;-61
2020/12/05 03:04:47;;;;;;;44.35;23.08;;;;;;;;;;5053588;28;20073;-62
2020/12/05 03:07:15;;;;;;;47.17;23.23;;;;;;;;;;5053807;28;20095;-61
2020/12/05 03:14:57;;;;;;;44.85;22.10;;;;;;;;;;4992471;28;20046;-64
2020/12/05 03:17:24;;;;;;;41.22;22.08;;;;;;;;;;4992748;28;20055;-64
2020/12/05 03:19:50;;;;;;;47.13;22.67;;;;;;;;;;4994426;28;20057;-63
2020/12/05 03:22:16;;;;;;;42.65;22.98;;;;;;;;;;4993779;28;20050;-64
2020/12/05 03:24:44;;;;;;;46.50;22.15;;;;;;;;;;4993149;28;20060;-64
2020/12/05 03:27:10;;;;;;;44.15;22.30;;;;;;;;;;4992831;28;20068;-65
2020/12/05 03:29:39;;;;;;;43.42;23.02;;;;;;;;;;5001271;28;20140;-63
2020/12/05 03:34:37;;;;;;;40.60;20.77;;;;;;;;;;4994363;28;20054;-62
2020/12/05 03:44:15;;;;;;;44.42;21.13;;;;;;;;;;5040114;23;20042;-63
2020/12/05 03:46:45;;;;;;;41.92;20.63;;;;;;;;;;5031656;28;20049;-63
2020/12/05 03:49:11;;;;;;;49.95;21.90;;;;;;;;;;5032445;28;20060;-62
2020/12/05 03:51:37;;;;;;;40.30;20.35;;;;;;;;;;5032337;28;20057;-62
2020/12/05 04:23:43;;;;;;;35.67;18.88;;;;;;;;;;4948913;23;20505;-62
2020/12/05 04:26:09;;;;;;;36.60;18.10;;;;;;;;;;5011347;28;20413;-62
2020/12/05 04:28:36;;;;;;;36.75;18.60;;;;;;;;;;5013273;28;20061;-62
2020/12/05 04:31:03;;;;;;;40.35;19.73;;;;;;;;;;5028494;28;20432;-62
2020/12/05 04:33:29;;;;;;;36.85;19.45;;;;;;;;;;5028019;28;20489;-62
2020/12/05 04:35:56;;;;;;;38.60;21.05;;;;;;;;;;5010724;28;20057;-62
2020/12/05 04:38:22;;;;;;;43.53;20.85;;;;;;;;;;5011341;28;20050;-62
2020/12/05 04:40:48;;;;;;;43.50;22.33;;;;;;;;;;5009385;28;20050;-62
2020/12/05 04:43:15;;;;;;;46.97;24.42;;;;;;;;;;5011773;28;20049;-61
2020/12/05 04:45:42;;;;;;;55.33;26.55;;;;;;;;;;5010883;28;20054;-61
2020/12/05 04:48:08;;;;;;;48.72;27.83;;;;;;;;;;5011316;28;20053;-62
2020/12/05 04:50:35;;;;;;;42.22;24.83;;;;;;;;;;5011309;28;20054;-63
2020/12/05 04:53:20;;;;;;;46.08;23.95;;;;;;;;;;5027869;28;20087;-63
2020/12/05 04:55:46;;;;;;;48.38;22.08;;;;;;;;;;5027207;28;20057;-63
2020/12/05 04:58:20;;;;;;;42.08;21.55;;;;;;;;;;5011158;28;20049;-63
2020/12/05 05:00:51;;;;;;;46.58;22.50;;;;;;;;;;5011043;28;20061;-64
2020/12/05 05:03:20;;;;;;;51.95;26.08;;;;;;;;;;5027752;28;20511;-63
2020/12/05 05:05:46;;;;;;;50.45;23.60;;;;;;;;;;5026706;28;20050;-61
2020/12/05 05:08:12;;;;;;;48.53;24.45;;;;;;;;;;5011096;28;20046;-61
2020/12/05 05:10:39;;;;;;;56.75;25.30;;;;;;;;;;5010967;28;20050;-62
2020/12/05 05:13:17;;;;;;;58.53;25.95;;;;;;;;;;5011120;28;20053;-62
2020/12/05 05:15:45;;;;;;;45.90;24.08;;;;;;;;;;5010006;28;20056;-62
2020/12/05 05:18:12;;;;;;;49.83;24.20;;;;;;;;;;5011043;28;20057;-61
2020/12/05 05:20:39;;;;;;;50.45;24.73;;;;;;;;;;5027260;28;20053;-62
2020/12/05 05:23:19;;;;;;;54.05;25.35;;;;;;;;;;5028501;28;20044;-62
2020/12/05 05:25:55;;;;;;;48.45;25.73;;;;;;;;;;5017000;28;20069;-62
2020/12/05 05:28:41;;;;;;;51.00;24.08;;;;;;;;;;5011155;28;20052;-63
2020/12/05 05:31:23;;;;;;;48.58;24.33;;;;;;;;;;4978936;28;20045;-63
2020/12/05 05:33:52;;;;;;;54.17;23.98;;;;;;;;;;5010755;28;20054;-63
2020/12/05 05:36:29;;;;;;;44.95;22.73;;;;;;;;;;5026756;28;20050;-63
2020/12/05 05:39:03;;;;;;;44.75;22.83;;;;;;;;;;5026987;28;20058;-63
2020/12/05 05:41:30;;;;;;;43.63;20.98;;;;;;;;;;5011702;28;20062;-64
2020/12/05 05:44:06;;;;;;;42.15;20.67;;;;;;;;;;5010412;28;20058;-63
2020/12/05 05:46:37;;;;;;;40.97;21.73;;;;;;;;;;5010515;28;20046;-63
2020/12/05 05:49:04;;;;;;;36.47;19.35;;;;;;;;;;5010851;28;20050;-63
2020/12/05 05:51:37;;;;;;;34.08;17.98;;;;;;;;;;5010665;28;20057;-63
2020/12/05 05:54:10;;;;;;;;;;;;;;;;;;5011283;28;20046;-63
2020/12/05 05:56:36;;;;;;;30.38;15.88;;;;;;;;;;5010185;28;19929;-63
2020/12/05 05:59:03;;;;;;;31.20;16.75;;;;;;;;;;5010432;28;20504;-62
2020/12/05 06:31:46;;;;;;;31.17;16.77;;;;;;;;;;5001349;23;20049;-64
2020/12/05 07:04:28;;;;;;;29.45;16.95;;;;;;;;;;5021743;23;20128;-63
2020/12/05 07:37:23;;;;;;;21.27;11.02;;;;;;;;;;5047750;23;20089;-64
2020/12/05 07:39:51;;;;;;;15.88;10.05;;;;;;;;;;5035896;28;20045;-64
2020/12/05 07:42:17;;;;;;;17.38;10.30;;;;;;;;;;5050989;28;20059;-63
2020/12/05 07:44:43;;;;;;;16.50;10.70;;;;;;;;;;5025260;28;20050;-62
2020/12/05 07:47:19;;;;;;;16.73;10.20;;;;;;;;;;5010746;28;20065;-63
2020/12/05 07:49:52;;;;;;;24.10;12.20;;;;;;;;;;5010173;28;20065;-62
2020/12/05 07:52:38;;;;;;;18.48;10.05;;;;;;;;;;5010936;28;20064;-62
2020/12/05 08:25:14;;;;;;;27.00;14.20;;;;;;;;;;5033734;23;20175;-62
2020/12/05 08:27:40;;;;;;;27.52;13.60;;;;;;;;;;5029559;28;20451;-62
2020/12/05 08:30:06;;;;;;;24.35;13.63;;;;;;;;;;5013116;28;20053;-64
2020/12/05 08:32:33;;;;;;;25.75;14.00;;;;;;;;;;5030428;28;20045;-64
2020/12/05 08:35:10;;;;;;;23.73;14.25;;;;;;;;;;5049329;28;20088;-65
2020/12/05 08:37:43;;;;;;;20.65;13.18;;;;;;;;;;5044114;28;20412;-62
2020/12/05 09:13:43;;;;;;;19.52;12.38;;;;;;;;;;5027245;23;20084;-60
2020/12/05 09:16:09;;;;;;;18.75;11.35;;;;;;;;;;5017591;28;20042;-62
2020/12/05 09:18:39;;;;;;;21.95;12.10;;;;;;;;;;5024584;28;20100;-61
2020/12/05 09:21:17;;;;;;;21.30;12.10;;;;;;;;;;5012099;28;20050;-61
2020/12/05 09:23:43;;;;;;;18.35;10.85;;;;;;;;;;5011718;28;20050;-61
2020/12/05 09:26:09;;;;;;;24.27;11.00;;;;;;;;;;5011175;28;20536;-61
2020/12/05 09:31:22;;;;;;;20.35;11.93;;;;;;;;;;4996979;28;20172;-61
2020/12/05 09:33:48;;;;;;;18.25;11.35;;;;;;;;;;5015432;28;20056;-61
2020/12/05 09:36:17;;;;;;;19.55;12.90;;;;;;;;;;5009408;28;20484;-61
2020/12/05 09:38:44;;;;;;;17.15;11.40;;;;;;;;;;5009239;28;20559;-61
2020/12/05 09:41:10;;;;;;;16.92;10.98;;;;;;;;;;5010977;28;20069;-61
2020/12/05 09:47:23;;;;;;;21.15;11.77;;;;;;;;;;5050708;23;20107;-61
2020/12/05 09:49:50;;;;;;;16.50;11.40;;;;;;;;;;5029713;28;20072;-61
2020/12/05 09:52:16;;;;;;;16.13;10.27;;;;;;;;;;5032745;28;20080;-62
2020/12/05 09:54:42;;;;;;;17.35;11.57;;;;;;;;;;5032128;28;20045;-62
2020/12/05 09:57:09;;;;;;;18.83;11.93;;;;;;;;;;5031635;28;20056;-61
2020/12/05 09:59:35;;;;;;;17.30;11.73;;;;;;;;;;5032156;28;20098;-61
2020/12/05 10:02:05;;;;;;;17.80;11.35;;;;;;;;;;5031913;28;20045;-62
2020/12/05 10:04:31;;;;;;;19.35;13.20;;;;;;;;;;5029755;28;20048;-62
2020/12/05 10:06:58;;;;;;;18.00;11.98;;;;;;;;;;5031542;28;20160;-61
2020/12/05 10:09:24;;;;;;;17.55;11.73;;;;;;;;;;5035079;28;20487;-61
2020/12/05 10:11:51;;;;;;;17.75;12.13;;;;;;;;;;5054473;28;20049;-61
2020/12/05 10:14:17;;;;;;;16.27;11.15;;;;;;;;;;5037077;28;20056;-61
2020/12/05 10:16:43;;;;;;;18.83;11.63;;;;;;;;;;5035311;28;20044;-61
2020/12/05 10:19:09;;;;;;;16.90;11.65;;;;;;;;;;5036112;28;20049;-61
2020/12/05 10:21:36;;;;;;;18.95;11.73;;;;;;;;;;5052920;28;20045;-62
2020/12/05 10:24:02;;;;;;;17.95;11.23;;;;;;;;;;5052725;28;20048;-61
2020/12/05 10:26:28;;;;;;;19.17;11.20;;;;;;;;;;5053968;28;20445;-61
2020/12/05 10:28:54;;;;;;;20.13;11.90;;;;;;;;;;5036013;28;20480;-61
2020/12/05 10:31:21;;;;;;;16.88;11.90;;;;;;;;;;5036245;28;20063;-61
2020/12/05 10:33:47;;;;;;;17.23;11.55;;;;;;;;;;5035865;28;20057;-61
2020/12/05 10:36:19;;;;;;;16.95;10.77;;;;;;;;;;5034805;28;20043;-61
2020/12/05 10:38:45;;;;;;;15.88;11.00;;;;;;;;;;5036203;28;20049;-61
2020/12/05 10:41:12;;;;;;;21.58;11.55;;;;;;;;;;5052394;28;20052;-61
2020/12/05 10:43:38;;;;;;;14.10;11.18;;;;;;;;;;5035941;28;20057;-62
2020/12/05 10:46:05;;;;;;;17.85;12.27;;;;;;;;;;5035630;28;20057;-61
2020/12/05 10:48:31;;;;;;;17.95;11.95;;;;;;;;;;5036542;28;20049;-62
2020/12/05 10:51:00;;;;;;;14.90;10.55;;;;;;;;;;5036159;28;20049;-64
2020/12/05 10:53:30;;;;;;;20.90;12.10;;;;;;;;;;5051109;28;20052;-62
2020/12/05 10:55:56;;;;;;;16.77;11.90;;;;;;;;;;5032361;28;20073;-62
2020/12/05 10:58:22;;;;;;;16.30;11.63;;;;;;;;;;5034295;28;20055;-63
2020/12/05 11:00:49;;;;;;;19.33;11.85;;;;;;;;;;5033649;28;20057;-63
2020/12/05 11:03:15;;;;;;;17.90;12.05;;;;;;;;;;5034007;28;20045;-63
2020/12/05 11:05:41;;;;;;;18.90;12.38;;;;;;;;;;5032374;28;20053;-62
2020/12/05 11:08:07;;;;;;;19.88;13.23;;;;;;;;;;5033642;28;20060;-64
2020/12/05 11:10:34;;;;;;;17.30;11.75;;;;;;;;;;5016686;28;20053;-64
2020/12/05 11:13:00;;;;;;;17.30;11.35;;;;;;;;;;5033891;28;20483;-64
2020/12/05 11:15:28;;;;;;;17.80;12.50;;;;;;;;;;5033752;28;20049;-64
2020/12/05 11:17:55;;;;;;;19.15;12.45;;;;;;;;;;5032996;28;20064;-64
2020/12/05 11:20:22;;;;;;;21.90;12.68;;;;;;;;;;5033351;28;20084;-64
2020/12/05 11:22:49;;;;;;;18.58;12.30;;;;;;;;;;5051059;28;20638;-64
2020/12/05 11:25:15;;;;;;;20.50;12.85;;;;;;;;;;5032657;28;20504;-64
2020/12/05 11:27:43;;;;;;;20.13;13.57;;;;;;;;;;5031717;28;20055;-63
2020/12/05 11:30:09;;;;;;;20.65;13.02;;;;;;;;;;5050501;28;20391;-64
2020/12/05 11:32:37;;;;;;;16.58;12.02;;;;;;;;;;5049885;28;20045;-64
2020/12/05 11:35:04;;;;;;;15.50;11.38;;;;;;;;;;5049986;28;20414;-65
2020/12/05 11:37:31;;;;;;;16.58;11.30;;;;;;;;;;5049535;28;20045;-65
2020/12/05 11:39:57;;;;;;;17.77;11.48;;;;;;;;;;5051172;28;20067;-66
2020/12/05 11:42:32;;;;;;;18.30;12.23;;;;;;;;;;5049187;28;20162;-66
2020/12/05 11:45:00;;;;;;;20.95;12.77;;;;;;;;;;5049457;28;20414;-65
2020/12/05 11:47:27;;;;;;;16.75;11.82;;;;;;;;;;5049741;28;20052;-68
2020/12/05 11:49:54;;;;;;;20.30;12.52;;;;;;;;;;5049817;28;20407;-67
2020/12/05 11:52:20;;;;;;;17.83;12.93;;;;;;;;;;5049882;28;20072;-69
2020/12/05 11:54:47;;;;;;;20.27;13.25;;;;;;;;;;5049687;28;20309;-68
2020/12/05 11:57:13;;;;;;;17.25;12.55;;;;;;;;;;5031858;23;20046;-69
2020/12/05 11:59:40;;;;;;;18.05;12.95;;;;;;;;;;4997037;28;20119;-69
2020/12/05 12:02:08;;;;;;;15.35;11.68;;;;;;;;;;5031145;28;20067;-69
2020/12/05 12:04:39;;;;;;;18.20;12.38;;;;;;;;;;5013172;28;20064;-70
2020/12/05 12:07:06;;;;;;;15.80;11.95;;;;;;;;;;5013043;28;20130;-67
2020/12/05 12:09:32;;;;;;;17.38;10.43;;;;;;;;;;5013208;28;20049;-68
2020/12/05 12:11:59;;;;;;;16.77;11.75;;;;;;;;;;5012226;28;20538;-76
2020/12/05 12:14:25;;;;;;;16.42;11.27;;;;;;;;;;5013357;28;20106;-69
2020/12/05 12:16:51;;;;;;;15.20;10.55;;;;;;;;;;5012432;28;20054;-70
2020/12/05 12:19:17;;;;;;;17.15;11.20;;;;;;;;;;5013257;28;20046;-68
2020/12/05 12:21:43;;;;;;;16.40;10.18;;;;;;;;;;5013197;28;20045;-70
2020/12/05 12:24:09;;;;;;;16.30;11.45;;;;;;;;;;5012782;28;20049;-69
2020/12/05 12:26:35;;;;;;;16.95;11.25;;;;;;;;;;5012458;28;20057;-70
2020/12/05 12:29:02;;;;;;;15.93;10.98;;;;;;;;;;5013459;28;20052;-69
2020/12/05 12:31:28;;;;;;;16.67;12.52;;;;;;;;;;5012597;28;20428;-69
2020/12/05 12:33:54;;;;;;;16.67;11.73;;;;;;;;;;5012823;28;20061;-69
2020/12/05 12:36:21;;;;;;;13.18;9.65;;;;;;;;;;5012329;28;20053;-71
2020/12/05 12:38:48;;;;;;;14.70;10.70;;;;;;;;;;5013144;28;20045;-67
2020/12/05 12:41:18;;;;;;;13.13;9.85;;;;;;;;;;5012994;28;20058;-66
2020/12/05 12:43:45;;;;;;;13.80;10.90;;;;;;;;;;4996695;28;20435;-68
2020/12/05 12:46:14;;;;;;;15.20;9.57;;;;;;;;;;5006992;28;20350;-67
2020/12/05 12:48:40;;;;;;;15.48;10.43;;;;;;;;;;4999804;28;20064;-67
2020/12/05 12:51:08;;;;;;;15.85;11.10;;;;;;;;;;5013430;28;20057;-68
2020/12/05 12:53:40;;;;;;;16.90;11.15;;;;;;;;;;4982555;28;20050;-67
2020/12/05 12:56:20;;;;;;;15.45;11.32;;;;;;;;;;5012843;28;20415;-66
2020/12/05 12:58:55;;;;;;;13.55;10.30;;;;;;;;;;5030556;28;20045;-68
2020/12/05 13:01:24;;;;;;;16.08;11.55;;;;;;;;;;5014037;28;20503;-64
2020/12/05 13:03:50;;;;;;;15.63;11.02;;;;;;;;;;5029817;28;20255;-64
2020/12/05 13:06:17;;;;;;;16.02;11.30;;;;;;;;;;5012595;28;20056;-66
2020/12/05 13:12:04;;;;;;;18.50;11.82;;;;;;;;;;5011448;28;20046;-71
2020/12/05 13:14:30;;;;;;;17.45;11.70;;;;;;;;;;5018413;28;20072;-69
2020/12/05 13:16:57;;;;;;;15.80;11.27;;;;;;;;;;5008929;28;20057;-68
2020/12/05 13:19:23;;;;;;;17.95;11.50;;;;;;;;;;5010860;28;20053;-65
2020/12/05 13:21:50;;;;;;;17.73;11.57;;;;;;;;;;5007511;28;20324;-70
2020/12/05 13:24:16;;;;;;;16.60;11.93;;;;;;;;;;5009666;28;20409;-71
2020/12/05 13:26:42;;;;;;;15.60;11.07;;;;;;;;;;5006716;28;20100;-69
2020/12/05 13:29:09;;;;;;;17.75;11.93;;;;;;;;;;5008251;28;20069;-73
2020/12/05 13:31:36;;;;;;;16.35;10.98;;;;;;;;;;5007255;28;20053;-71
2020/12/05 13:34:02;;;;;;;19.77;12.13;;;;;;;;;;5014337;28;20045;-69
2020/12/05 13:36:32;;;;;;;16.60;11.30;;;;;;;;;;5014722;28;20053;-69
2020/12/05 13:39:00;;;;;;;22.15;13.80;;;;;;;;;;5016245;28;20508;-68
2020/12/05 13:41:27;;;;;;;29.38;16.42;;;;;;;;;;5016009;28;20420;-64
2020/12/05 13:43:54;;;;;;;19.95;12.68;;;;;;;;;;4995216;28;20046;-65
2020/12/05 13:46:21;;;;;;;18.83;11.57;;;;;;;;;;5013227;28;20064;-66
2020/12/05 13:48:47;;;;;;;17.48;12.25;;;;;;;;;;5025209;28;20432;-68
2020/12/05 13:51:13;;;;;;;17.30;12.10;;;;;;;;;;4990960;28;20590;-67
2020/12/05 13:53:39;;;;;;;20.75;13.27;;;;;;;;;;4991008;28;20052;-66
2020/12/05 13:56:06;;;;;;;18.88;12.77;;;;;;;;;;5006349;28;20058;-67
2020/12/05 13:58:32;;;;;;;16.60;11.65;;;;;;;;;;5007050;28;20100;-65
2020/12/05 14:01:00;;;;;;;16.00;11.57;;;;;;;;;;5006943;28;20062;-68
2020/12/05 14:03:26;;;;;;;18.13;11.48;;;;;;;;;;5006425;28;20523;-66
2020/12/05 14:05:52;;;;;;;18.38;12.15;;;;;;;;;;5004966;28;20053;-64
2020/12/05 14:08:18;;;;;;;18.95;12.63;;;;;;;;;;4995764;28;20053;-65
2020/12/05 14:10:45;;;;;;;20.63;13.77;;;;;;;;;;5000793;28;20563;-65
2020/12/05 14:13:11;;;;;;;20.08;13.15;;;;;;;;;;5009301;28;20374;-67
2020/12/05 14:15:37;;;;;;;21.25;13.45;;;;;;;;;;5007904;28;20440;-66
2020/12/05 14:18:03;;;;;;;21.15;13.57;;;;;;;;;;4992498;28;20417;-66
2020/12/05 14:20:29;;;;;;;21.38;13.25;;;;;;;;;;5024653;28;20396;-66
2020/12/05 14:22:55;;;;;;;23.15;13.52;;;;;;;;;;5006821;28;20042;-66
2020/12/05 14:25:21;;;;;;;19.40;12.50;;;;;;;;;;5007408;28;20409;-66
2020/12/05 14:27:48;;;;;;;19.58;12.93;;;;;;;;;;5008497;28;20062;-66
2020/12/05 14:30:14;;;;;;;19.38;12.23;;;;;;;;;;4993302;28;20053;-63
2020/12/05 14:32:41;;;;;;;21.33;13.05;;;;;;;;;;5008500;28;20050;-66
2020/12/05 14:35:07;;;;;;;19.67;13.00;;;;;;;;;;5008068;28;20077;-68
2020/12/05 14:37:33;;;;;;;18.92;11.52;;;;;;;;;;5008557;28;20057;-66
2020/12/05 14:39:59;;;;;;;18.27;11.77;;;;;;;;;;4992748;28;20321;-67
2020/12/05 14:42:26;;;;;;;24.33;13.13;;;;;;;;;;4992288;28;20061;-65
2020/12/05 14:44:52;;;;;;;18.67;12.90;;;;;;;;;;4991894;28;20064;-64
2020/12/05 14:47:18;;;;;;;19.80;12.40;;;;;;;;;;4991622;28;20475;-67
2020/12/05 14:49:44;;;;;;;20.38;12.73;;;;;;;;;;5008626;28;20408;-64
2020/12/05 14:52:11;;;;;;;19.58;13.02;;;;;;;;;;5025071;28;20050;-66
2020/12/05 14:54:37;;;;;;;18.27;12.38;;;;;;;;;;4993025;28;20507;-65
2020/12/05 14:57:04;;;;;;;20.33;12.23;;;;;;;;;;5011715;28;20050;-67
2020/12/05 14:59:31;;;;;;;21.23;12.73;;;;;;;;;;5029743;28;20050;-65
2020/12/05 15:01:57;;;;;;;20.35;12.32;;;;;;;;;;5027169;28;20064;-64
2020/12/05 15:04:23;;;;;;;21.60;12.93;;;;;;;;;;4995525;28;20049;-67
2020/12/05 15:06:52;;;;;;;20.55;13.02;;;;;;;;;;5010661;28;20436;-68
2020/12/05 15:09:18;;;;;;;19.75;12.27;;;;;;;;;;5012272;28;20054;-67
2020/12/05 15:11:44;;;;;;;20.40;13.60;;;;;;;;;;5012121;28;20046;-65
2020/12/05 15:14:11;;;;;;;25.48;13.85;;;;;;;;;;5011449;28;20065;-63
2020/12/05 15:16:37;;;;;;;20.48;13.32;;;;;;;;;;5010995;28;20053;-68
2020/12/05 15:19:03;;;;;;;23.00;13.90;;;;;;;;;;5018385;28;20047;-66
2020/12/05 15:21:29;;;;;;;24.25;14.68;;;;;;;;;;5001691;28;20049;-65
2020/12/05 15:23:57;;;;;;;23.73;13.50;;;;;;;;;;5012331;28;20072;-65
2020/12/05 15:26:24;;;;;;;23.30;13.73;;;;;;;;;;5029523;28;20060;-65
2020/12/05 15:28:50;;;;;;;20.58;12.50;;;;;;;;;;5012539;28;20397;-63
2020/12/05 15:31:16;;;;;;;19.40;12.75;;;;;;;;;;5010274;28;20413;-64
2020/12/05 15:33:42;;;;;;;18.67;12.27;;;;;;;;;;5009103;28;20061;-64
2020/12/05 15:36:15;;;;;;;21.98;12.02;;;;;;;;;;5009582;28;20054;-64
2020/12/05 15:38:43;;;;;;;20.75;11.55;;;;;;;;;;5009342;28;20053;-63
2020/12/05 15:41:11;;;;;;;19.55;12.13;;;;;;;;;;5011359;28;20049;-65
2020/12/05 15:43:39;;;;;;;19.95;11.75;;;;;;;;;;4992625;28;20053;-64
2020/12/05 15:46:07;;;;;;;20.10;11.93;;;;;;;;;;4992161;28;20476;-63
2020/12/05 15:48:34;;;;;;;19.65;11.60;;;;;;;;;;4993442;28;20050;-64
2020/12/05 15:51:01;;;;;;;19.50;12.20;;;;;;;;;;5010258;28;20049;-65
2020/12/05 15:53:27;;;;;;;19.20;12.10;;;;;;;;;;5013112;28;20061;-65
2020/12/05 15:55:53;;;;;;;18.17;11.30;;;;;;;;;;5019995;28;20064;-68
2020/12/05 15:58:19;;;;;;;21.95;13.30;;;;;;;;;;5007365;28;20137;-66
2020/12/05 16:00:46;;;;;;;19.33;11.70;;;;;;;;;;4996020;28;20057;-66
2020/12/05 16:03:12;;;;;;;21.40;12.65;;;;;;;;;;5017942;28;20412;-69
2020/12/05 16:05:38;;;;;;;20.40;12.10;;;;;;;;;;5016671;28;20506;-69
2020/12/05 16:08:04;;;;;;;20.73;12.60;;;;;;;;;;5020054;28;20049;-70
2020/12/05 16:10:31;;;;;;;19.25;12.25;;;;;;;;;;4995733;28;20042;-70
2020/12/05 16:12:58;;;;;;;19.95;12.18;;;;;;;;;;5008674;28;20428;-65
2020/12/05 16:15:24;;;;;;;21.85;12.70;;;;;;;;;;5008570;28;20408;-67
2020/12/05 16:17:51;;;;;;;22.50;12.60;;;;;;;;;;5008658;28;20062;-65
2020/12/05 16:20:17;;;;;;;17.00;11.35;;;;;;;;;;4975717;28;20060;-64
2020/12/05 16:22:43;;;;;;;20.92;12.57;;;;;;;;;;5008224;28;20053;-67
2020/12/05 16:25:09;;;;;;;22.10;12.50;;;;;;;;;;4991379;28;20058;-68
2020/12/05 16:27:35;;;;;;;20.52;11.90;;;;;;;;;;5008589;28;20053;-65
2020/12/05 16:30:03;;;;;;;20.38;11.68;;;;;;;;;;5008992;28;20752;-66
2020/12/05 16:32:29;;;;;;;17.90;11.57;;;;;;;;;;5008956;28;20057;-66
2020/12/05 16:34:56;;;;;;;18.42;12.60;;;;;;;;;;5008595;28;20053;-64
2020/12/05 16:37:23;;;;;;;18.35;12.00;;;;;;;;;;5008182;28;20050;-67
2020/12/05 16:39:50;;;;;;;18.38;11.18;;;;;;;;;;5008511;28;20561;-67
2020/12/05 16:52:32;;;;;;;20.83;12.20;;;;;;;;;;5006624;23;20475;-64
2020/12/05 16:54:58;;;;;;;20.60;12.02;;;;;;;;;;5021162;28;20064;-67
2020/12/05 16:57:24;;;;;;;23.35;12.43;;;;;;;;;;5020216;28;20046;-73
2020/12/05 16:59:50;;;;;;;18.13;12.13;;;;;;;;;;4991304;28;20416;-70
2020/12/05 17:02:16;;;;;;;19.60;11.73;;;;;;;;;;5008168;28;20050;-69
2020/12/05 17:04:42;;;;;;;17.65;12.05;;;;;;;;;;5006396;28;20144;-66
2020/12/05 17:07:09;;;;;;;19.35;11.02;;;;;;;;;;5007588;28;20378;-70
2020/12/05 17:09:35;;;;;;;19.25;11.88;;;;;;;;;;5007860;28;20060;-66
2020/12/05 17:12:01;;;;;;;18.80;12.00;;;;;;;;;;5007861;28;20081;-66
2020/12/05 17:14:27;;;;;;;19.60;12.10;;;;;;;;;;5007764;28;20053;-64
2020/12/05 17:16:53;;;;;;;19.98;12.73;;;;;;;;;;5006257;28;20849;-68
2020/12/05 17:19:19;;;;;;;22.58;12.55;;;;;;;;;;5007933;28;20358;-68
2020/12/05 17:21:46;;;;;;;17.27;12.23;;;;;;;;;;5007671;28;20057;-66
2020/12/05 17:24:12;;;;;;;21.98;12.70;;;;;;;;;;4990866;28;20066;-67
2020/12/05 17:26:38;;;;;;;21.63;13.57;;;;;;;;;;5006217;28;20056;-69
2020/12/05 17:29:04;;;;;;;21.23;14.00;;;;;;;;;;5007163;28;20486;-68
2020/12/05 17:31:30;;;;;;;20.20;11.48;;;;;;;;;;5007585;28;20503;-68
2020/12/05 17:33:57;;;;;;;19.98;12.60;;;;;;;;;;5007198;28;20053;-68
2020/12/05 17:36:23;;;;;;;22.05;14.05;;;;;;;;;;5007146;28;20066;-68
2020/12/05 17:38:49;;;;;;;24.52;13.48;;;;;;;;;;5006921;28;20046;-69
2020/12/05 17:41:19;;;;;;;20.55;12.68;;;;;;;;;;5007826;28;20049;-68
2020/12/05 17:43:46;;;;;;;20.70;12.95;;;;;;;;;;5005393;28;20046;-68
2020/12/05 17:46:12;;;;;;;18.17;12.35;;;;;;;;;;5006516;28;20528;-68
2020/12/05 17:48:38;;;;;;;22.33;12.93;;;;;;;;;;5007245;28;20056;-69
2020/12/05 17:51:05;;;;;;;18.70;13.35;;;;;;;;;;5007787;28;20386;-68
2020/12/05 17:53:32;;;;;;;22.00;13.30;;;;;;;;;;5007612;28;20076;-68
2020/12/05 17:55:58;;;;;;;19.70;13.57;;;;;;;;;;5008005;28;20061;-68
2020/12/05 17:58:24;;;;;;;22.27;13.98;;;;;;;;;;5007560;28;20503;-69